Alum Bank, Pennsylvania
Current Conditions -  °F | °C
As of 7:28 AM on Friday 24 Oct 2014 (Local Time) from KJST Reporting Station
Haze Haze  
Wind Chill:   Ceiling: 300
Heat Index:   Visibility: 4mi
Dew Point:   Wind: 8mph
Humidity: 92%   Direction: 290°WNW
Pressure: 30.05"   Gusts: NA
Location:  40.18°N, 78.61°W
Report Text: KJST 241128Z AUTO 29007KT 4SM BR OVC003 06/04 A3005 RMK AO2 T00560044
Loading
Personal Weather Stations






























Interactive Weather Map
Tropical Storm Tracking
New forecast layout! Learn more

10-Day Weather Forecast

Advertisements
Track Severe Weather on mobile